BGY weather

Il Caravaggio International Airport
Bergamo, Lombardy, Italy

Public forecast

Using degrees Celsius for public forecast. Weather courtesy of forecast.io.

METAR (pilot weather report)

Retrieved 2019/03/23 06:20 UTC (31 minutes ago):

LIME 230620Z 36004KT CAVOK 08/01 Q1026 NOSIG

TAF (pilot weather forecast)

Retrieved 2019/03/23 06:00 UTC (51 minutes ago):

TAF LIME 230500Z 2306/2406 VRB05KT CAVOK